Atwood, Illinois
Current Conditions -  °F | °C
As of 12:53 PM on Friday 21 Nov 2014 (Local Time) from KCMI Reporting Station
Clear Clear  
Wind Chill: 24°   Ceiling: Unl
Heat Index: 34°   Visibility: 10mi
Dew Point:   Wind: 15mph
Humidity: 35%   Direction: 140°SE
Pressure: 30.41"   Gusts: NA
Location:  39.8°N, 88.46°W
Report Text: KCMI 211853Z 14013KT 10SM CLR 01/M13 A3041 RMK AO2 SLP307 T00111128 $
Loading
Personal Weather Stations






























Interactive Weather Map New forecast layout! Learn more

10-Day Weather Forecast

Advertisements
Track Severe Weather on mobile